createdAt,value
2018-02-18T00:00:17.763Z,2.33
2018-02-18T00:02:45.496Z,2.26
2018-02-18T00:05:13.264Z,2.21
2018-02-18T00:07:41.961Z,2.26
2018-02-18T00:10:09.761Z,2.30
2018-02-18T00:12:37.529Z,2.31
2018-02-18T00:15:10.752Z,2.30
2018-02-18T00:17:38.511Z,2.37
2018-02-18T00:20:06.256Z,2.32
2018-02-18T00:22:33.985Z,2.32
2018-02-18T00:25:01.728Z,2.34
2018-02-18T00:27:29.453Z,2.41
2018-02-18T00:29:57.244Z,2.33
2018-02-18T00:32:24.983Z,2.27
2018-02-18T00:34:52.823Z,2.29
2018-02-18T00:37:20.542Z,2.24
2018-02-18T00:39:48.284Z,2.23
2018-02-18T00:42:16.027Z,2.25
2018-02-18T00:44:43.787Z,2.18
2018-02-18T00:47:11.529Z,2.21
2018-02-18T00:49:39.307Z,2.17
2018-02-18T00:52:07.083Z,2.12
2018-02-18T00:54:34.849Z,2.10
2018-02-18T00:57:02.575Z,2.11
2018-02-18T00:59:30.356Z,2.14
2018-02-18T01:01:58.094Z,2.11
2018-02-18T01:04:25.814Z,2.02
2018-02-18T01:06:53.584Z,2.06
2018-02-18T01:09:21.354Z,2.03
2018-02-18T01:11:49.128Z,2.02
2018-02-18T01:14:16.843Z,1.98
2018-02-18T01:16:44.593Z,2.03
2018-02-18T01:19:12.328Z,1.92
2018-02-18T01:21:40.068Z,1.85
2018-02-18T01:24:07.834Z,1.84
2018-02-18T01:26:35.567Z,1.88
2018-02-18T01:29:03.351Z,1.90
2018-02-18T01:31:31.102Z,1.96
2018-02-18T01:33:58.800Z,2.02
2018-02-18T01:36:27.374Z,2.05
2018-02-18T01:38:55.150Z,2.05
2018-02-18T01:41:23.834Z,2.04
2018-02-18T01:43:51.667Z,2.07
2018-02-18T01:46:19.394Z,1.94
2018-02-18T01:48:47.237Z,1.88
2018-02-18T01:51:15.051Z,1.78
2018-02-18T01:53:42.787Z,1.74
2018-02-18T01:56:10.546Z,1.71
2018-02-18T01:58:38.340Z,1.69
2018-02-18T02:01:06.109Z,1.63
2018-02-18T02:03:33.937Z,1.55
2018-02-18T02:06:01.715Z,1.54
2018-02-18T02:08:29.509Z,1.55
2018-02-18T02:10:57.264Z,1.64
2018-02-18T02:13:25.028Z,1.73
2018-02-18T02:15:52.841Z,1.70
2018-02-18T02:18:20.648Z,1.67
2018-02-18T02:20:48.409Z,1.76
2018-02-18T02:23:16.221Z,1.73
2018-02-18T02:25:43.956Z,1.77
2018-02-18T02:28:11.765Z,1.75
2018-02-18T02:30:39.482Z,1.64
2018-02-18T02:33:07.281Z,1.54
2018-02-18T02:35:35.062Z,1.35
2018-02-18T02:38:02.819Z,1.17
2018-02-18T02:40:30.541Z,0.88
2018-02-18T02:42:58.297Z,0.78
2018-02-18T02:45:26.042Z,0.65
2018-02-18T02:47:53.833Z,0.58
2018-02-18T02:50:21.643Z,0.63
2018-02-18T02:52:49.422Z,0.64
2018-02-18T02:55:17.180Z,0.71
2018-02-18T02:57:44.888Z,0.73
2018-02-18T03:00:12.655Z,0.69
2018-02-18T03:02:40.499Z,0.59
2018-02-18T03:05:08.298Z,0.45
2018-02-18T03:07:36.115Z,0.46
2018-02-18T03:10:03.881Z,0.54
2018-02-18T03:12:31.685Z,0.52
2018-02-18T03:14:59.518Z,0.48
2018-02-18T03:17:27.431Z,0.45
2018-02-18T03:19:55.283Z,0.34
2018-02-18T03:22:23.103Z,0.24
2018-02-18T03:24:50.861Z,0.19
2018-02-18T03:27:18.702Z,0.21
2018-02-18T03:29:46.630Z,0.18
2018-02-18T03:32:14.640Z,0.19
2018-02-18T03:34:42.514Z,0.18
2018-02-18T03:37:10.319Z,0.22
2018-02-18T03:39:38.168Z,0.24
2018-02-18T03:42:05.963Z,0.32
2018-02-18T03:44:33.793Z,0.37
2018-02-18T03:47:01.556Z,0.36
2018-02-18T03:49:29.358Z,0.38
2018-02-18T03:51:57.134Z,0.33
2018-02-18T03:54:24.939Z,0.30
2018-02-18T03:56:52.788Z,0.27
2018-02-18T03:59:21.050Z,0.25
2018-02-18T04:01:48.875Z,0.21
2018-02-18T04:04:17.515Z,0.21
2018-02-18T04:06:45.386Z,0.22
2018-02-18T04:09:13.128Z,0.26
2018-02-18T04:11:41.068Z,0.28
2018-02-18T04:14:08.856Z,0.31
2018-02-18T04:16:37.267Z,0.30
2018-02-18T04:19:05.028Z,0.34
2018-02-18T04:21:32.816Z,0.38
2018-02-18T04:24:00.668Z,0.37
2018-02-18T04:26:28.778Z,0.32
2018-02-18T04:28:56.524Z,0.32
2018-02-18T04:31:24.356Z,0.33
2018-02-18T04:33:52.178Z,0.32
2018-02-18T04:36:19.967Z,0.32
2018-02-18T04:38:47.770Z,0.39
2018-02-18T04:41:15.573Z,0.34
2018-02-18T04:43:43.401Z,0.36
2018-02-18T04:46:11.208Z,0.45
2018-02-18T04:48:38.960Z,0.49
2018-02-18T04:51:06.753Z,0.47
2018-02-18T04:53:34.593Z,0.47
2018-02-18T04:56:02.376Z,0.46
2018-02-18T04:58:30.212Z,0.54
2018-02-18T05:00:58.824Z,0.59
2018-02-18T05:03:27.410Z,0.60
2018-02-18T05:05:55.556Z,0.52
2018-02-18T05:08:23.353Z,0.54
2018-02-18T05:10:51.226Z,0.58
2018-02-18T05:13:19.532Z,0.59
2018-02-18T05:15:47.340Z,0.55
2018-02-18T05:18:15.179Z,0.55
2018-02-18T05:20:42.986Z,0.50
2018-02-18T05:23:10.854Z,0.45
2018-02-18T05:25:39.109Z,0.46
2018-02-18T05:28:07.043Z,0.44
2018-02-18T05:30:35.849Z,0.37
2018-02-18T05:33:03.885Z,0.35
2018-02-18T05:35:31.804Z,0.35
2018-02-18T05:38:01.185Z,0.40
2018-02-18T05:40:29.051Z,0.34
2018-02-18T05:42:57.761Z,0.39
2018-02-18T05:45:25.706Z,0.38
2018-02-18T05:47:53.607Z,0.32
2018-02-18T05:50:21.411Z,0.25
2018-02-18T05:52:50.107Z,0.19
2018-02-18T05:55:17.929Z,0.17
2018-02-18T05:57:45.922Z,0.21
2018-02-18T06:00:13.786Z,0.31
2018-02-18T06:02:41.630Z,0.30
2018-02-18T06:05:09.434Z,0.38
2018-02-18T06:07:37.299Z,0.35
2018-02-18T06:10:05.217Z,0.37
2018-02-18T06:12:33.154Z,0.33
2018-02-18T06:15:00.977Z,0.26
2018-02-18T06:17:28.778Z,0.18
2018-02-18T06:19:56.648Z,0.26
2018-02-18T06:22:24.451Z,0.27
2018-02-18T06:24:52.332Z,0.28
2018-02-18T06:27:20.170Z,0.21
2018-02-18T06:29:48.102Z,0.14
2018-02-18T06:32:15.997Z,0.15
2018-02-18T06:34:43.873Z,0.05
2018-02-18T06:37:11.805Z,0.05
2018-02-18T06:39:39.721Z,-0.01
2018-02-18T06:42:07.669Z,0.04
2018-02-18T06:44:36.644Z,0.09
2018-02-18T06:47:04.619Z,0.07
2018-02-18T06:49:32.665Z,0.14
2018-02-18T06:52:00.566Z,0.11
2018-02-18T06:54:28.672Z,0.16
2018-02-18T06:56:56.722Z,0.13
2018-02-18T06:59:24.753Z,0.13
2018-02-18T07:01:52.698Z,0.14
2018-02-18T07:04:20.629Z,0.11
2018-02-18T07:06:48.488Z,0.16
2018-02-18T07:09:16.376Z,0.19
2018-02-18T07:11:44.593Z,0.23
2018-02-18T07:14:13.585Z,0.21
2018-02-18T07:16:41.560Z,0.20
2018-02-18T07:19:09.406Z,0.23
2018-02-18T07:21:37.251Z,0.20
2018-02-18T07:24:05.255Z,0.23
2018-02-18T07:26:33.163Z,0.26
2018-02-18T07:29:01.038Z,0.27
2018-02-18T07:31:29.194Z,0.30
2018-02-18T07:33:57.179Z,0.31
2018-02-18T07:36:25.702Z,0.37
2018-02-18T07:38:53.720Z,0.43
2018-02-18T07:41:21.620Z,0.47
2018-02-18T07:43:49.449Z,0.60
2018-02-18T07:46:17.215Z,0.64
2018-02-18T07:48:45.130Z,0.66
2018-02-18T07:51:13.057Z,0.68
2018-02-18T07:53:41.748Z,0.69
2018-02-18T07:56:09.576Z,0.75
2018-02-18T07:58:37.628Z,0.77
2018-02-18T08:01:05.612Z,0.78
2018-02-18T08:03:33.526Z,0.83
2018-02-18T08:06:01.702Z,0.87
2018-02-18T08:08:29.979Z,0.91
2018-02-18T08:10:57.932Z,0.99
2018-02-18T08:13:25.871Z,1.07
2018-02-18T08:15:53.816Z,1.12
2018-02-18T08:18:21.847Z,1.16
2018-02-18T08:20:49.835Z,1.20
2018-02-18T08:23:18.615Z,1.30
2018-02-18T08:25:47.217Z,1.37
2018-02-18T08:28:15.132Z,1.46
2018-02-18T08:30:42.991Z,1.49
2018-02-18T08:33:10.815Z,1.58
2018-02-18T08:35:39.460Z,1.64
2018-02-18T08:38:07.426Z,1.73
2018-02-18T08:40:35.285Z,1.79
2018-02-18T08:43:03.101Z,1.87
2018-02-18T08:45:30.984Z,1.94
2018-02-18T08:47:58.876Z,2.04
2018-02-18T08:50:26.760Z,2.11
2018-02-18T08:52:54.508Z,2.22
2018-02-18T08:55:22.313Z,2.34
2018-02-18T08:57:50.113Z,2.45
2018-02-18T09:00:18.168Z,2.50
2018-02-18T09:02:46.033Z,2.55
2018-02-18T09:05:13.885Z,2.60
2018-02-18T09:07:41.687Z,2.66
2018-02-18T09:10:09.551Z,2.73
2018-02-18T09:12:37.707Z,2.79
2018-02-18T09:15:05.786Z,2.88
2018-02-18T09:17:33.557Z,2.98
2018-02-18T09:20:02.243Z,3.04
2018-02-18T09:22:30.103Z,3.14
2018-02-18T09:24:58.045Z,3.18
2018-02-18T09:27:25.977Z,3.24
2018-02-18T09:29:53.866Z,3.29
2018-02-18T09:32:21.689Z,3.38
2018-02-18T09:34:49.566Z,3.45
2018-02-18T09:37:17.429Z,3.54
2018-02-18T09:39:45.537Z,3.62
2018-02-18T09:42:13.333Z,3.72
2018-02-18T09:44:41.167Z,3.81
2018-02-18T09:47:08.880Z,3.91
2018-02-18T09:49:36.606Z,4.02
2018-02-18T09:52:04.554Z,4.11
2018-02-18T09:54:32.370Z,4.25
2018-02-18T09:57:00.086Z,4.40
2018-02-18T09:59:27.838Z,4.52
2018-02-18T10:01:56.003Z,4.58
2018-02-18T10:04:23.750Z,4.65
2018-02-18T10:06:51.544Z,4.80
2018-02-18T10:09:32.595Z,4.88
2018-02-18T10:15:14.073Z,5.19
2018-02-18T10:17:41.670Z,5.37
2018-02-18T10:20:09.335Z,5.54
2018-02-18T10:22:36.946Z,5.61
2018-02-18T10:25:04.651Z,5.67
2018-02-18T10:27:32.252Z,5.83
2018-02-18T10:29:59.900Z,5.88
2018-02-18T10:32:27.559Z,6.00
2018-02-18T10:34:55.191Z,6.08
2018-02-18T10:37:22.855Z,6.05
2018-02-18T10:39:50.439Z,6.13
2018-02-18T10:42:18.041Z,6.32
2018-02-18T10:44:45.664Z,6.48
2018-02-18T10:47:13.296Z,6.65
2018-02-18T10:49:40.954Z,6.69
2018-02-18T10:52:08.591Z,6.70
2018-02-18T10:54:36.223Z,6.91
2018-02-18T10:57:03.839Z,6.96
2018-02-18T10:59:31.529Z,7.14
2018-02-18T11:01:59.152Z,7.43
2018-02-18T11:04:29.391Z,7.45
2018-02-18T11:06:57.017Z,7.58
2018-02-18T11:09:24.660Z,7.70
2018-02-18T11:11:52.307Z,7.97
2018-02-18T11:14:19.991Z,8.20
2018-02-18T11:16:47.619Z,8.02
2018-02-18T11:19:15.239Z,7.94
2018-02-18T11:21:42.890Z,7.93
2018-02-18T11:24:10.489Z,8.09
2018-02-18T11:26:38.128Z,8.11
2018-02-18T11:29:06.548Z,8.15
2018-02-18T11:31:34.208Z,8.27
2018-02-18T11:34:01.872Z,8.32
2018-02-18T11:36:29.515Z,8.32
2018-02-18T11:38:57.280Z,8.34
2018-02-18T11:41:24.931Z,8.47
2018-02-18T11:43:52.539Z,8.42
2018-02-18T11:46:20.186Z,8.55
2018-02-18T11:48:47.800Z,8.63
2018-02-18T11:51:15.432Z,8.89
2018-02-18T11:53:43.069Z,8.80
2018-02-18T11:56:10.707Z,8.82
2018-02-18T11:58:38.403Z,8.81
2018-02-18T12:01:06.040Z,8.58
2018-02-18T12:03:33.638Z,8.37
2018-02-18T12:06:01.292Z,8.45
2018-02-18T12:08:28.966Z,8.61
2018-02-18T12:10:56.619Z,8.57
2018-02-18T12:13:24.320Z,8.69
2018-02-18T12:15:51.968Z,8.67
2018-02-18T12:18:19.590Z,8.80
2018-02-18T12:20:47.240Z,8.89
2018-02-18T12:23:14.869Z,9.13
2018-02-18T12:25:42.738Z,9.43
2018-02-18T12:28:10.359Z,9.38
2018-02-18T12:30:38.027Z,9.49
2018-02-18T12:33:05.664Z,9.89
2018-02-18T12:35:34.394Z,10.05
2018-02-18T12:38:02.027Z,10.03
2018-02-18T12:40:30.379Z,10.26
2018-02-18T12:42:58.064Z,10.54
2018-02-18T12:45:25.739Z,10.38
2018-02-18T12:47:53.421Z,10.39
2018-02-18T12:50:21.066Z,10.04
2018-02-18T12:52:48.672Z,10.15
2018-02-18T12:55:16.318Z,9.99
2018-02-18T12:57:43.976Z,10.17
2018-02-18T13:00:12.401Z,10.05
2018-02-18T13:02:40.046Z,10.17
2018-02-18T13:05:07.720Z,10.29
2018-02-18T13:07:35.398Z,10.29
2018-02-18T13:10:03.078Z,10.11
2018-02-18T13:12:30.666Z,10.06
2018-02-18T13:14:58.289Z,10.27
2018-02-18T13:17:25.920Z,10.56
2018-02-18T13:19:53.559Z,10.88
2018-02-18T13:22:21.185Z,10.59
2018-02-18T13:24:48.813Z,10.45
2018-02-18T13:27:16.411Z,10.33
2018-02-18T13:29:44.818Z,10.56
2018-02-18T13:32:12.443Z,10.50
2018-02-18T13:34:40.123Z,10.53
2018-02-18T13:37:07.711Z,10.65
2018-02-18T13:39:35.372Z,10.65
2018-02-18T13:42:02.964Z,10.63
2018-02-18T13:44:30.590Z,10.65
2018-02-18T13:46:58.203Z,10.59
2018-02-18T13:49:25.854Z,10.75
2018-02-18T13:51:53.571Z,10.79
2018-02-18T13:54:21.222Z,10.70
2018-02-18T13:56:48.828Z,10.90
2018-02-18T13:59:16.461Z,11.08
2018-02-18T14:01:44.019Z,11.09
2018-02-18T14:04:11.667Z,11.19
2018-02-18T14:06:39.275Z,11.35
2018-02-18T14:09:06.919Z,10.87
2018-02-18T14:11:34.522Z,11.00
2018-02-18T14:14:03.690Z,10.77
2018-02-18T14:16:31.340Z,10.50
2018-02-18T14:18:58.974Z,10.48
2018-02-18T14:21:26.911Z,10.35
2018-02-18T14:23:54.518Z,10.58
2018-02-18T14:26:22.170Z,10.95
2018-02-18T14:28:49.774Z,11.24
2018-02-18T14:31:17.410Z,11.03
2018-02-18T14:33:45.018Z,11.11
2018-02-18T14:36:12.679Z,11.05
2018-02-18T14:38:40.311Z,10.91
2018-02-18T14:41:07.934Z,10.97
2018-02-18T14:43:47.410Z,10.92
2018-02-18T14:46:26.806Z,10.94
2018-02-18T14:49:06.247Z,10.77
2018-02-18T14:51:45.632Z,10.40
2018-02-18T14:57:33.046Z,9.78
2018-02-18T15:00:00.674Z,9.62
2018-02-18T15:02:28.292Z,9.62
2018-02-18T15:04:55.927Z,9.53
2018-02-18T15:07:23.590Z,9.47
2018-02-18T15:09:51.212Z,9.40
2018-02-18T15:12:18.811Z,9.32
2018-02-18T15:14:46.458Z,9.19
2018-02-18T15:17:14.077Z,9.21
2018-02-18T15:19:41.707Z,9.29
2018-02-18T15:22:09.330Z,9.41
2018-02-18T15:24:36.972Z,9.29
2018-02-18T15:27:04.571Z,9.35
2018-02-18T15:29:32.179Z,9.33
2018-02-18T15:31:59.800Z,9.23
2018-02-18T15:34:27.395Z,9.14
2018-02-18T15:36:54.995Z,9.03
2018-02-18T15:39:22.651Z,8.92
2018-02-18T15:41:50.308Z,8.88
2018-02-18T15:44:18.005Z,8.80
2018-02-18T15:46:45.654Z,8.68
2018-02-18T15:49:13.306Z,8.58
2018-02-18T15:51:40.953Z,8.63
2018-02-18T15:54:08.556Z,8.63
2018-02-18T15:56:36.204Z,8.61
2018-02-18T15:59:03.828Z,8.48
2018-02-18T16:01:31.502Z,8.37
2018-02-18T16:03:59.269Z,8.28
2018-02-18T16:06:27.035Z,8.16
2018-02-18T16:08:54.625Z,8.10
2018-02-18T16:11:22.332Z,8.07
2018-02-18T16:13:49.919Z,7.97
2018-02-18T16:16:17.556Z,7.96
2018-02-18T16:18:45.168Z,7.94
2018-02-18T16:21:12.791Z,7.95
2018-02-18T16:23:40.410Z,7.91
2018-02-18T16:26:08.055Z,7.91
2018-02-18T16:28:35.654Z,7.84
2018-02-18T16:31:03.272Z,7.85
2018-02-18T16:33:30.879Z,7.87
2018-02-18T16:35:58.510Z,7.87
2018-02-18T16:38:26.111Z,7.85
2018-02-18T16:40:53.795Z,7.84
2018-02-18T16:43:21.399Z,7.70
2018-02-18T16:45:49.063Z,7.66
2018-02-18T16:48:16.667Z,7.63
2018-02-18T16:50:44.309Z,7.53
2018-02-18T16:53:11.920Z,7.47
2018-02-18T16:55:39.571Z,7.31
2018-02-18T16:58:07.183Z,7.27
2018-02-18T17:00:34.810Z,7.23
2018-02-18T17:03:02.415Z,7.18
2018-02-18T17:05:30.040Z,7.12
2018-02-18T17:07:57.671Z,7.18
2018-02-18T17:10:25.321Z,7.15
2018-02-18T17:12:52.943Z,7.11
2018-02-18T17:15:20.594Z,7.06
2018-02-18T17:17:48.208Z,7.01
2018-02-18T17:20:15.873Z,6.92
2018-02-18T17:22:43.481Z,6.88
2018-02-18T17:25:11.228Z,6.79
2018-02-18T17:27:38.833Z,6.73
2018-02-18T17:30:06.446Z,6.64
2018-02-18T17:32:34.104Z,6.61
2018-02-18T17:35:01.758Z,6.57
2018-02-18T17:37:29.370Z,6.54
2018-02-18T17:39:57.075Z,6.53
2018-02-18T17:42:24.688Z,6.50
2018-02-18T17:44:52.354Z,6.47
2018-02-18T17:47:20.046Z,6.44
2018-02-18T17:49:47.701Z,6.44
2018-02-18T17:52:15.548Z,6.34
2018-02-18T17:54:43.167Z,6.24
2018-02-18T17:57:10.797Z,6.18
2018-02-18T17:59:38.414Z,6.17
2018-02-18T18:02:06.046Z,6.16
2018-02-18T18:04:33.668Z,6.18
2018-02-18T18:07:01.436Z,6.08
2018-02-18T18:09:29.034Z,6.08
2018-02-18T18:11:56.678Z,6.05
2018-02-18T18:14:24.285Z,6.00
2018-02-18T18:16:51.949Z,6.07
2018-02-18T18:19:19.555Z,6.09
2018-02-18T18:21:47.225Z,6.07
2018-02-18T18:24:14.808Z,6.02
2018-02-18T18:26:42.448Z,6.01
2018-02-18T18:29:10.064Z,5.98
2018-02-18T18:31:37.705Z,5.88
2018-02-18T18:34:05.311Z,5.90
2018-02-18T18:36:32.945Z,5.86
2018-02-18T18:39:00.555Z,5.83
2018-02-18T18:41:28.185Z,5.77
2018-02-18T18:43:55.820Z,5.70
2018-02-18T18:46:23.451Z,5.77
2018-02-18T18:48:51.075Z,5.78
2018-02-18T18:51:18.731Z,5.73
2018-02-18T18:53:46.343Z,5.74
2018-02-18T18:56:13.991Z,5.61
2018-02-18T18:58:41.598Z,5.57
2018-02-18T19:01:09.242Z,5.56
2018-02-18T19:03:36.851Z,5.54
2018-02-18T19:06:04.488Z,5.45
2018-02-18T19:08:32.100Z,5.37
2018-02-18T19:10:59.738Z,5.28
2018-02-18T19:13:27.335Z,5.19
2018-02-18T19:15:54.986Z,5.16
2018-02-18T19:18:22.657Z,5.20
2018-02-18T19:20:50.277Z,5.18
2018-02-18T19:23:17.889Z,5.31
2018-02-18T19:25:45.542Z,5.30
2018-02-18T19:28:13.139Z,5.27
2018-02-18T19:30:40.776Z,5.19
2018-02-18T19:33:08.395Z,5.04
2018-02-18T19:35:36.032Z,4.92
2018-02-18T19:38:03.667Z,4.93
2018-02-18T19:40:31.340Z,4.77
2018-02-18T19:42:58.951Z,4.66
2018-02-18T19:45:26.600Z,4.62
2018-02-18T19:47:54.221Z,4.64
2018-02-18T19:50:21.899Z,4.69
2018-02-18T19:52:49.550Z,4.69
2018-02-18T19:55:17.235Z,4.64
2018-02-18T19:57:44.850Z,4.56
2018-02-18T20:00:12.530Z,4.52
2018-02-18T20:02:40.146Z,4.50
2018-02-18T20:05:07.840Z,4.54
2018-02-18T20:07:35.469Z,4.60
2018-02-18T20:10:03.339Z,4.62
2018-02-18T20:12:30.983Z,4.66
2018-02-18T20:14:58.672Z,4.63
2018-02-18T20:17:26.287Z,4.60
2018-02-18T20:19:54.180Z,4.50
2018-02-18T20:22:21.783Z,4.53
2018-02-18T20:24:49.418Z,4.51
2018-02-18T20:27:17.205Z,4.46
2018-02-18T20:29:44.843Z,4.33
2018-02-18T20:32:12.474Z,4.30
2018-02-18T20:34:40.184Z,4.29
2018-02-18T20:37:08.021Z,4.28
2018-02-18T20:39:35.651Z,4.39
2018-02-18T20:42:03.317Z,4.34
2018-02-18T20:44:31.001Z,4.30
2018-02-18T20:46:58.700Z,4.35
2018-02-18T20:49:26.331Z,4.42
2018-02-18T20:51:53.973Z,4.43
2018-02-18T20:54:21.573Z,4.32
2018-02-18T20:56:49.226Z,4.31
2018-02-18T20:59:16.843Z,4.33
2018-02-18T21:01:44.513Z,4.33
2018-02-18T21:04:12.187Z,4.30
2018-02-18T21:06:39.848Z,4.31
2018-02-18T21:09:07.608Z,4.31
2018-02-18T21:11:35.253Z,4.36
2018-02-18T21:14:02.868Z,4.30
2018-02-18T21:16:30.492Z,4.20
2018-02-18T21:18:58.090Z,4.02
2018-02-18T21:21:25.827Z,3.90
2018-02-18T21:23:53.422Z,3.96
2018-02-18T21:26:21.078Z,3.98
2018-02-18T21:28:48.679Z,3.98
2018-02-18T21:31:16.339Z,3.93
2018-02-18T21:33:44.137Z,3.84
2018-02-18T21:36:11.750Z,3.85
2018-02-18T21:38:39.488Z,3.83
2018-02-18T21:41:07.156Z,3.84
2018-02-18T21:43:34.920Z,3.81
2018-02-18T21:46:02.584Z,3.78
2018-02-18T21:48:30.296Z,3.88
2018-02-18T21:50:58.018Z,3.70
2018-02-18T21:53:25.682Z,3.67
2018-02-18T21:55:53.363Z,3.81
2018-02-18T21:58:21.111Z,3.77
2018-02-18T22:00:48.866Z,3.64
2018-02-18T22:03:16.578Z,3.53
2018-02-18T22:05:44.303Z,3.48
2018-02-18T22:08:12.095Z,3.39
2018-02-18T22:10:39.816Z,3.44
2018-02-18T22:13:07.634Z,3.46
2018-02-18T22:15:35.320Z,3.45
2018-02-18T22:18:03.055Z,3.42
2018-02-18T22:20:30.778Z,3.39
2018-02-18T22:22:58.648Z,3.42
2018-02-18T22:25:26.415Z,3.50
2018-02-18T22:27:54.224Z,3.59
2018-02-18T22:30:22.130Z,3.65
2018-02-18T22:32:49.965Z,3.70
2018-02-18T22:35:17.704Z,3.69
2018-02-18T22:37:45.532Z,3.66
2018-02-18T22:40:13.248Z,3.68
2018-02-18T22:42:40.920Z,3.70
2018-02-18T22:45:08.599Z,3.68
2018-02-18T22:47:36.230Z,3.56
2018-02-18T22:50:03.927Z,3.55
2018-02-18T22:52:31.570Z,4.01
2018-02-18T22:54:59.171Z,4.06
2018-02-18T22:57:26.789Z,3.91
2018-02-18T22:59:54.394Z,3.71
2018-02-18T23:02:22.035Z,3.56
2018-02-18T23:04:49.735Z,3.59
2018-02-18T23:07:17.557Z,3.65
2018-02-18T23:09:45.147Z,3.65
2018-02-18T23:12:12.779Z,3.47
2018-02-18T23:14:40.471Z,3.22
2018-02-18T23:17:08.190Z,3.09
2018-02-18T23:19:35.865Z,2.95
2018-02-18T23:22:03.624Z,2.92
2018-02-18T23:24:31.303Z,2.81
2018-02-18T23:26:59.055Z,2.75
2018-02-18T23:29:26.742Z,2.69
2018-02-18T23:31:54.459Z,2.70
2018-02-18T23:34:22.122Z,2.64
2018-02-18T23:36:49.818Z,2.62
2018-02-18T23:39:17.614Z,2.62
2018-02-18T23:41:45.289Z,2.57
2018-02-18T23:44:13.004Z,2.66
2018-02-18T23:46:40.699Z,2.68
2018-02-18T23:49:08.419Z,2.71
2018-02-18T23:51:36.099Z,2.69
2018-02-18T23:54:03.855Z,2.66
2018-02-18T23:56:31.534Z,2.62
2018-02-18T23:58:59.268Z,2.59
